Time;durP1;ratioP1;P1;durP2;ratioP2;P2;SDS_P1;SDS_P2;PMS_P1;PMS_P2;Temp;Humidity;BMP_temperature;BMP_pressure;BME280_temperature;BME280_humidity;BME280_pressure;Samples;Min_cycle;Max_cycle;Signal;HPM_P1;HPM_P2
2021/04/01 00:01:52;;;;;;;6.43;5.67;;;;;;;;;;5070855;28;20172;-59
2021/04/01 00:04:18;;;;;;;9.97;5.90;;;;;;;;;;5070341;28;20646;-59
2021/04/01 00:06:44;;;;;;;6.07;5.47;;;;;;;;;;5053289;28;21018;-59
2021/04/01 00:09:10;;;;;;;7.10;6.10;;;;;;;;;;5058407;28;20175;-59
2021/04/01 00:11:36;;;;;;;6.37;5.10;;;;;;;;;;5050414;28;20540;-59
2021/04/01 00:14:04;;;;;;;6.87;5.13;;;;;;;;;;5055431;28;20283;-60
2021/04/01 00:16:31;;;;;;;7.10;5.20;;;;;;;;;;5051156;28;20215;-60
2021/04/01 00:18:57;;;;;;;5.97;5.37;;;;;;;;;;5053975;28;20176;-61
2021/04/01 00:21:26;;;;;;;7.73;5.77;;;;;;;;;;5059129;28;20667;-60
2021/04/01 00:23:52;;;;;;;9.87;5.87;;;;;;;;;;5021196;28;20254;-62
2021/04/01 00:26:18;;;;;;;6.47;5.03;;;;;;;;;;5054118;28;20181;-59
2021/04/01 00:28:44;;;;;;;7.57;4.70;;;;;;;;;;5051313;28;20246;-59
2021/04/01 00:31:10;;;;;;;7.10;5.80;;;;;;;;;;5069990;28;20176;-59
2021/04/01 00:33:36;;;;;;;7.77;5.73;;;;;;;;;;5068851;28;20207;-59
2021/04/01 00:36:02;;;;;;;8.70;5.37;;;;;;;;;;5050666;28;20195;-60
2021/04/01 00:38:28;;;;;;;6.70;4.77;;;;;;;;;;5052981;28;20184;-60
2021/04/01 00:40:54;;;;;;;6.60;4.80;;;;;;;;;;5052865;28;20676;-59
2021/04/01 00:43:21;;;;;;;7.10;5.10;;;;;;;;;;5054885;28;20948;-59
2021/04/01 00:45:47;;;;;;;6.53;5.30;;;;;;;;;;5070575;28;20649;-62
2021/04/01 00:48:13;;;;;;;7.88;5.03;;;;;;;;;;5062947;28;20400;-59
2021/04/01 00:50:39;;;;;;;7.97;4.33;;;;;;;;;;5038125;28;20220;-59
2021/04/01 00:53:05;;;;;;;5.13;4.63;;;;;;;;;;5050149;28;20204;-59
2021/04/01 00:55:31;;;;;;;6.17;4.77;;;;;;;;;;5062212;28;20248;-60
2021/04/01 00:58:00;;;;;;;6.30;4.60;;;;;;;;;;5058081;28;20178;-61
2021/04/01 01:00:28;;;;;;;6.77;4.20;;;;;;;;;;5065336;28;20636;-59
2021/04/01 01:02:55;;;;;;;7.23;4.30;;;;;;;;;;5043046;28;20267;-59
2021/04/01 01:05:22;;;;;;;4.70;4.23;;;;;;;;;;5063502;28;20177;-59
2021/04/01 01:07:48;;;;;;;4.83;4.10;;;;;;;;;;5050479;28;20627;-60
2021/04/01 01:10:15;;;;;;;4.23;3.83;;;;;;;;;;5052318;28;20239;-59
2021/04/01 01:12:42;;;;;;;6.10;4.47;;;;;;;;;;5049552;28;20201;-59
2021/04/01 01:15:08;;;;;;;4.43;3.67;;;;;;;;;;5062650;28;20176;-60
2021/04/01 01:17:35;;;;;;;4.83;4.17;;;;;;;;;;5069811;28;20185;-59
2021/04/01 01:20:01;;;;;;;5.07;4.13;;;;;;;;;;5055373;28;20220;-59
2021/04/01 01:22:27;;;;;;;7.20;4.13;;;;;;;;;;5053632;28;20204;-62
2021/04/01 01:24:53;;;;;;;4.40;3.87;;;;;;;;;;5066481;28;20180;-59
2021/04/01 01:27:20;;;;;;;5.03;4.17;;;;;;;;;;5072080;28;20173;-59
2021/04/01 01:29:50;;;;;;;4.43;3.83;;;;;;;;;;5056031;28;20686;-59
2021/04/01 01:32:20;;;;;;;4.33;3.93;;;;;;;;;;5046904;28;20201;-59
2021/04/01 01:34:47;;;;;;;5.23;4.30;;;;;;;;;;5045343;28;20173;-59
2021/04/01 01:37:16;;;;;;;4.50;3.87;;;;;;;;;;5063084;28;20757;-61
2021/04/01 01:39:42;;;;;;;4.93;3.97;;;;;;;;;;5065584;28;20176;-59
2021/04/01 01:42:08;;;;;;;5.40;4.60;;;;;;;;;;5061911;28;20224;-59
2021/04/01 01:44:34;;;;;;;4.90;4.40;;;;;;;;;;5065619;28;20201;-59
2021/04/01 01:47:00;;;;;;;4.50;3.97;;;;;;;;;;5072806;28;20181;-59
2021/04/01 01:49:26;;;;;;;5.67;3.87;;;;;;;;;;5067220;28;20221;-59
2021/04/01 01:51:53;;;;;;;6.37;3.80;;;;;;;;;;5046250;28;20224;-59
2021/04/01 01:54:19;;;;;;;4.10;3.80;;;;;;;;;;5065078;28;20191;-59
2021/04/01 01:56:45;;;;;;;6.60;4.63;;;;;;;;;;5054118;28;20192;-59
2021/04/01 01:59:12;;;;;;;5.20;4.07;;;;;;;;;;5061461;28;20184;-59
2021/04/01 02:01:38;;;;;;;6.43;4.63;;;;;;;;;;5056202;28;20189;-59
2021/04/01 02:04:04;;;;;;;5.30;3.90;;;;;;;;;;5065628;28;20192;-59
2021/04/01 02:06:31;;;;;;;5.33;3.50;;;;;;;;;;5059520;28;20214;-59
2021/04/01 02:08:58;;;;;;;4.60;3.20;;;;;;;;;;5072466;28;20188;-59
2021/04/01 02:11:25;;;;;;;5.77;4.43;;;;;;;;;;5057252;28;20184;-60
2021/04/01 02:13:52;;;;;;;4.53;3.93;;;;;;;;;;5058443;28;20269;-59
2021/04/01 02:16:18;;;;;;;4.17;3.77;;;;;;;;;;5073048;28;20169;-59
2021/04/01 02:18:44;;;;;;;4.90;3.93;;;;;;;;;;5072263;28;20188;-59
2021/04/01 02:21:10;;;;;;;5.27;4.17;;;;;;;;;;5072258;28;20176;-59
2021/04/01 02:23:37;;;;;;;6.53;4.77;;;;;;;;;;5061640;28;20209;-59
2021/04/01 02:26:04;;;;;;;6.50;4.07;;;;;;;;;;5069336;28;20203;-61
2021/04/01 02:28:32;;;;;;;5.83;4.37;;;;;;;;;;5071417;28;20238;-59
2021/04/01 02:30:59;;;;;;;4.37;3.97;;;;;;;;;;5059975;28;20176;-59
2021/04/01 02:33:27;;;;;;;6.50;4.23;;;;;;;;;;5054048;28;20291;-59
2021/04/01 02:35:53;;;;;;;6.37;4.33;;;;;;;;;;5061297;28;20173;-59
2021/04/01 02:38:20;;;;;;;5.30;4.30;;;;;;;;;;5053913;28;20191;-59
2021/04/01 02:40:46;;;;;;;5.83;4.23;;;;;;;;;;5056088;28;20241;-59
2021/04/01 02:43:18;;;;;;;5.67;4.10;;;;;;;;;;5034654;28;20258;-59
2021/04/01 02:45:44;;;;;;;5.13;3.67;;;;;;;;;;5058271;28;20185;-59
2021/04/01 02:48:10;;;;;;;5.57;3.93;;;;;;;;;;5053358;28;20196;-60
2021/04/01 02:50:36;;;;;;;4.60;3.90;;;;;;;;;;5071791;28;20257;-59
2021/04/01 02:53:02;;;;;;;5.47;4.70;;;;;;;;;;5069563;28;20232;-59
2021/04/01 02:55:28;;;;;;;6.57;4.07;;;;;;;;;;5066321;28;20579;-59
2021/04/01 02:57:54;;;;;;;5.63;4.20;;;;;;;;;;5071543;28;20180;-59
2021/04/01 03:00:25;;;;;;;4.80;4.23;;;;;;;;;;5055999;28;20265;-59
2021/04/01 03:02:55;;;;;;;5.20;4.70;;;;;;;;;;5051719;28;20181;-59
2021/04/01 03:05:21;;;;;;;4.27;3.87;;;;;;;;;;5052520;28;20180;-59
2021/04/01 03:07:47;;;;;;;4.90;4.40;;;;;;;;;;5052175;28;20169;-59
2021/04/01 03:10:14;;;;;;;5.63;4.27;;;;;;;;;;5065350;28;20225;-59
2021/04/01 03:12:41;;;;;;;4.93;4.10;;;;;;;;;;5049095;28;20193;-59
2021/04/01 03:15:08;;;;;;;5.87;4.23;;;;;;;;;;5069876;28;20259;-59
2021/04/01 03:17:34;;;;;;;5.33;4.33;;;;;;;;;;5071826;28;20188;-59
2021/04/01 03:20:00;;;;;;;6.87;4.23;;;;;;;;;;5060168;28;20181;-59
2021/04/01 03:22:27;;;;;;;7.50;4.33;;;;;;;;;;5060613;28;20235;-59
2021/04/01 03:24:53;;;;;;;4.97;4.30;;;;;;;;;;5061922;28;20185;-59
2021/04/01 03:27:19;;;;;;;4.53;4.00;;;;;;;;;;5034094;28;20215;-61
2021/04/01 03:30:03;;;;;;;5.20;4.60;;;;;;;;;;5052443;28;20238;-60
2021/04/01 03:32:29;;;;;;;5.97;4.87;;;;;;;;;;5051872;28;20197;-59
2021/04/01 03:34:55;;;;;;;5.80;4.47;;;;;;;;;;5062209;28;20180;-59
2021/04/01 03:37:21;;;;;;;5.13;4.63;;;;;;;;;;5070850;28;20182;-59
2021/04/01 03:39:47;;;;;;;5.60;4.90;;;;;;;;;;5058281;28;20188;-60
2021/04/01 03:42:13;;;;;;;5.97;4.83;;;;;;;;;;5051474;28;20304;-59
2021/04/01 03:44:39;;;;;;;4.90;4.40;;;;;;;;;;5070457;28;20180;-60
2021/04/01 03:47:05;;;;;;;5.70;5.10;;;;;;;;;;5069201;28;20528;-59
2021/04/01 03:49:31;;;;;;;5.53;4.60;;;;;;;;;;5057176;28;20211;-59
2021/04/01 03:51:57;;;;;;;5.93;5.03;;;;;;;;;;5051042;28;20208;-59
2021/04/01 03:54:23;;;;;;;7.40;5.10;;;;;;;;;;5061627;28;20289;-58
2021/04/01 03:56:50;;;;;;;7.00;4.90;;;;;;;;;;5052489;28;20244;-60
2021/04/01 03:59:19;;;;;;;7.27;5.90;;;;;;;;;;5060663;28;20178;-59
2021/04/01 04:07:14;;;;;;;5.40;4.67;;;;;;;;;;5054585;28;20179;-59
2021/04/01 04:15:12;;;;;;;7.67;5.47;;;;;;;;;;5056465;28;20180;-59
2021/04/01 04:17:38;;;;;;;7.53;5.40;;;;;;;;;;5050809;28;20169;-59
2021/04/01 04:20:06;;;;;;;6.73;4.90;;;;;;;;;;5055545;28;20215;-59
2021/04/01 04:22:33;;;;;;;6.70;5.53;;;;;;;;;;5064509;28;20762;-59
2021/04/01 04:25:00;;;;;;;7.33;5.70;;;;;;;;;;5067307;28;20203;-59
2021/04/01 04:29:59;;;;;;;6.60;5.00;;;;;;;;;;5060048;28;20232;-59
2021/04/01 04:32:26;;;;;;;6.40;5.60;;;;;;;;;;5051018;28;20189;-59
2021/04/01 04:34:52;;;;;;;8.07;4.63;;;;;;;;;;5066191;28;20618;-58
2021/04/01 04:37:18;;;;;;;6.83;5.80;;;;;;;;;;5062079;28;20596;-59
2021/04/01 04:39:44;;;;;;;7.10;5.63;;;;;;;;;;5045334;28;20440;-59
2021/04/01 04:42:10;;;;;;;5.97;5.37;;;;;;;;;;5049796;28;20228;-59
2021/04/01 04:44:36;;;;;;;7.20;5.90;;;;;;;;;;5056744;28;20188;-59
2021/04/01 04:47:02;;;;;;;6.57;5.67;;;;;;;;;;5050366;28;20204;-59
2021/04/01 04:49:28;;;;;;;8.97;5.60;;;;;;;;;;5037670;28;20205;-59
2021/04/01 04:51:54;;;;;;;8.53;5.63;;;;;;;;;;5056521;28;20212;-59
2021/04/01 04:54:20;;;;;;;7.50;5.60;;;;;;;;;;5070567;28;20176;-62
2021/04/01 04:56:47;;;;;;;7.83;5.93;;;;;;;;;;5069576;28;20631;-59
2021/04/01 04:59:27;;;;;;;6.47;5.20;;;;;;;;;;5074169;28;20172;-59
2021/04/01 05:07:06;;;;;;;7.23;6.00;;;;;;;;;;5058001;28;20569;-59
2021/04/01 05:09:32;;;;;;;6.23;4.97;;;;;;;;;;5063332;28;20189;-59
2021/04/01 05:11:58;;;;;;;7.80;5.90;;;;;;;;;;5051625;28;20177;-59
2021/04/01 05:14:24;;;;;;;6.63;5.77;;;;;;;;;;5062440;28;20242;-60
2021/04/01 05:16:50;;;;;;;8.17;6.17;;;;;;;;;;5073682;28;20172;-61
2021/04/01 05:19:17;;;;;;;9.77;6.23;;;;;;;;;;5071187;28;20537;-59
2021/04/01 05:24:25;;;;;;;7.75;6.55;;;;;;;;;;5070044;28;20900;-59
2021/04/01 05:29:18;;;;;;;9.57;6.23;;;;;;;;;;5064762;28;20181;-59
2021/04/01 05:31:44;;;;;;;7.20;5.50;;;;;;;;;;5052858;28;20213;-58
2021/04/01 05:34:10;;;;;;;6.57;5.93;;;;;;;;;;5060014;28;20215;-60
2021/04/01 05:36:39;;;;;;;6.87;6.13;;;;;;;;;;5052330;28;20234;-59
2021/04/01 05:39:09;;;;;;;6.60;5.80;;;;;;;;;;5071980;28;20185;-59
2021/04/01 05:41:36;;;;;;;9.60;6.07;;;;;;;;;;5053753;28;20225;-61
2021/04/01 05:49:23;;;;;;;6.87;5.93;;;;;;;;;;5059666;28;20577;-59
2021/04/01 05:55:12;;;;;;;10.63;6.47;;;;;;;;;;5045959;28;20176;-58
2021/04/01 06:00:43;;;;;;;7.17;5.83;;;;;;;;;;5068106;28;20225;-59
2021/04/01 06:05:45;;;;;;;9.57;6.13;;;;;;;;;;5073033;28;20180;-59
2021/04/01 06:08:23;;;;;;;7.23;5.73;;;;;;;;;;5072147;28;20176;-60
2021/04/01 06:10:51;;;;;;;7.23;6.13;;;;;;;;;;5068958;28;20164;-59
2021/04/01 06:13:18;;;;;;;7.10;6.03;;;;;;;;;;5054618;28;20202;-58
2021/04/01 06:15:48;;;;;;;7.17;5.87;;;;;;;;;;5072447;28;20180;-58
2021/04/01 06:18:15;;;;;;;6.47;5.87;;;;;;;;;;5070766;28;20184;-58
2021/04/01 06:20:43;;;;;;;7.13;6.13;;;;;;;;;;5066301;28;20184;-59
2021/04/01 06:23:11;;;;;;;8.27;6.20;;;;;;;;;;5054134;28;20650;-60
2021/04/01 06:25:39;;;;;;;8.70;6.47;;;;;;;;;;5065998;28;20226;-59
2021/04/01 06:28:08;;;;;;;6.60;6.00;;;;;;;;;;5052095;28;20651;-60
2021/04/01 06:30:52;;;;;;;7.90;6.00;;;;;;;;;;5069889;28;20187;-59
2021/04/01 06:33:24;;;;;;;11.40;6.70;;;;;;;;;;5071332;28;20192;-58
2021/04/01 06:36:02;;;;;;;7.80;6.17;;;;;;;;;;5072673;28;20223;-59
2021/04/01 06:38:35;;;;;;;6.83;5.73;;;;;;;;;;5060158;28;20206;-59
2021/04/01 06:41:04;;;;;;;6.73;5.83;;;;;;;;;;5071594;28;20239;-60
2021/04/01 06:44:03;;;;;;;7.80;7.00;;;;;;;;;;5071398;28;20287;-59
2021/04/01 06:46:31;;;;;;;7.47;6.53;;;;;;;;;;5023238;28;20193;-59
2021/04/01 06:52:08;;;;;;;8.63;6.63;;;;;;;;;;5052746;28;20697;-59
2021/04/01 06:54:47;;;;;;;9.83;5.63;;;;;;;;;;5046353;28;20719;-59
2021/04/01 06:57:32;;;;;;;7.73;5.93;;;;;;;;;;5071121;28;20214;-59
2021/04/01 07:02:43;;;;;;;7.10;6.40;;;;;;;;;;5072599;28;20263;-60
2021/04/01 07:05:47;;;;;;;8.13;6.87;;;;;;;;;;5050013;28;20574;-59
2021/04/01 07:08:07;;;;;;;8.60;6.27;;;;;;;;;;5086132;28;20657;-59
2021/04/01 07:11:10;;;;;;;8.37;6.80;;;;;;;;;;5069231;28;20176;-61
2021/04/01 07:13:37;;;;;;;9.07;6.67;;;;;;;;;;5074692;28;20227;-60
2021/04/01 07:16:13;;;;;;;8.97;6.60;;;;;;;;;;5066621;28;20229;-59
2021/04/01 07:32:48;;;;;;;9.67;7.83;;;;;;;;;;5066511;28;20269;-59
2021/04/01 07:46:33;;;;;;;19.07;13.27;;;;;;;;;;5049887;28;20292;-58
2021/04/01 07:49:04;;;;;;;23.17;14.17;;;;;;;;;;5056591;28;20233;-58
2021/04/01 07:54:03;;;;;;;20.67;14.13;;;;;;;;;;5061670;28;20207;-59
2021/04/01 07:56:33;;;;;;;27.77;19.37;;;;;;;;;;5062175;28;20180;-59
2021/04/01 07:59:28;;;;;;;23.37;16.30;;;;;;;;;;5041868;28;20164;-59
2021/04/01 08:02:21;;;;;;;42.50;29.92;;;;;;;;;;5051169;28;20407;-59
2021/04/01 08:04:48;;;;;;;41.63;25.30;;;;;;;;;;5056921;28;20172;-59
2021/04/01 08:07:15;;;;;;;47.97;29.30;;;;;;;;;;5050836;28;20177;-59
2021/04/01 08:09:43;;;;;;;46.27;27.67;;;;;;;;;;5060405;28;20169;-59
2021/04/01 08:12:18;;;;;;;48.60;28.67;;;;;;;;;;5065506;28;20168;-62
2021/04/01 08:14:46;;;;;;;46.43;28.97;;;;;;;;;;5060071;28;20184;-59
2021/04/01 08:17:21;;;;;;;48.67;29.37;;;;;;;;;;5067882;28;20185;-60
2021/04/01 08:19:49;;;;;;;55.03;31.27;;;;;;;;;;5070199;28;20168;-60
2021/04/01 08:22:20;;;;;;;55.87;33.73;;;;;;;;;;5070526;28;20171;-59
2021/04/01 08:24:59;;;;;;;53.40;33.67;;;;;;;;;;5069394;28;20695;-60
2021/04/01 08:27:49;;;;;;;52.40;33.17;;;;;;;;;;5067267;28;20180;-58
2021/04/01 08:33:25;;;;;;;61.23;35.07;;;;;;;;;;5035153;28;20239;-59
2021/04/01 08:35:57;;;;;;;61.80;36.47;;;;;;;;;;5058668;28;20156;-60
2021/04/01 08:38:24;;;;;;;70.20;37.23;;;;;;;;;;5067839;28;20168;-60
2021/04/01 08:40:51;;;;;;;57.33;33.93;;;;;;;;;;5056326;28;20536;-60
2021/04/01 08:43:34;;;;;;;68.57;39.67;;;;;;;;;;5056458;28;20711;-59
2021/04/01 08:46:03;;;;;;;67.37;40.23;;;;;;;;;;5070601;28;20612;-61
2021/04/01 08:48:34;;;;;;;58.87;38.77;;;;;;;;;;5061637;28;20195;-60
2021/04/01 08:51:14;;;;;;;63.67;37.23;;;;;;;;;;5070254;28;20701;-60
2021/04/01 08:53:56;;;;;;;66.40;38.87;;;;;;;;;;5069302;28;20552;-60
2021/04/01 08:56:31;;;;;;;66.10;37.20;;;;;;;;;;5069874;28;20765;-60
2021/04/01 08:59:16;;;;;;;55.33;34.70;;;;;;;;;;5069661;28;20164;-60
2021/04/01 09:01:43;;;;;;;66.63;35.37;;;;;;;;;;5049615;28;20265;-60
2021/04/01 09:04:10;;;;;;;63.53;35.80;;;;;;;;;;5047444;28;20212;-60
2021/04/01 09:06:46;;;;;;;59.00;36.20;;;;;;;;;;5049773;28;20184;-60
2021/04/01 09:09:13;;;;;;;59.80;35.27;;;;;;;;;;5040162;28;20649;-60
2021/04/01 09:11:54;;;;;;;58.53;34.40;;;;;;;;;;5046739;28;20657;-60
2021/04/01 09:14:25;;;;;;;66.20;37.80;;;;;;;;;;5069275;28;20200;-60
2021/04/01 09:17:08;;;;;;;60.57;35.77;;;;;;;;;;5069699;28;20651;-60
2021/04/01 09:19:35;;;;;;;59.57;35.57;;;;;;;;;;5050117;28;20207;-61
2021/04/01 09:22:01;;;;;;;66.83;36.70;;;;;;;;;;5060826;28;20181;-60
2021/04/01 09:24:34;;;;;;;66.63;36.43;;;;;;;;;;5042281;28;20279;-60
2021/04/01 09:27:01;;;;;;;63.33;36.43;;;;;;;;;;5052275;28;20189;-60
2021/04/01 09:29:27;;;;;;;66.80;35.87;;;;;;;;;;5062711;28;20191;-60
2021/04/01 09:31:54;;;;;;;64.57;35.37;;;;;;;;;;5040997;28;20189;-61
2021/04/01 09:34:21;;;;;;;65.77;36.97;;;;;;;;;;5052956;28;20208;-61
2021/04/01 09:36:48;;;;;;;65.37;34.60;;;;;;;;;;5069401;28;20233;-60
2021/04/01 09:39:26;;;;;;;68.53;36.33;;;;;;;;;;5042902;28;20214;-60
2021/04/01 09:42:11;;;;;;;67.43;36.75;;;;;;;;;;5032604;28;20438;-60
2021/04/01 09:44:48;;;;;;;55.93;32.53;;;;;;;;;;5062896;28;20183;-60
2021/04/01 09:47:19;;;;;;;60.17;33.00;;;;;;;;;;5044831;28;20184;-60
2021/04/01 09:50:04;;;;;;;56.03;31.93;;;;;;;;;;5072583;28;20287;-61
2021/04/01 09:52:30;;;;;;;54.60;32.60;;;;;;;;;;5054127;28;20204;-60
2021/04/01 09:55:01;;;;;;;65.27;35.57;;;;;;;;;;5069239;28;20185;-59
2021/04/01 09:57:38;;;;;;;61.87;33.33;;;;;;;;;;5070620;28;20185;-59
2021/04/01 10:00:15;;;;;;;60.93;34.20;;;;;;;;;;5067360;28;20215;-60
2021/04/01 10:02:43;;;;;;;59.00;34.07;;;;;;;;;;5066610;28;20215;-59
2021/04/01 10:05:11;;;;;;;62.93;35.83;;;;;;;;;;5072784;28;20211;-59
2021/04/01 10:07:52;;;;;;;63.13;36.83;;;;;;;;;;5068761;28;20188;-60
2021/04/01 10:10:29;;;;;;;55.33;33.53;;;;;;;;;;5057506;28;20277;-59
2021/04/01 10:12:55;;;;;;;60.13;33.93;;;;;;;;;;5056702;28;20201;-59
2021/04/01 10:15:28;;;;;;;55.07;32.40;;;;;;;;;;5046794;28;20646;-60
2021/04/01 10:17:54;;;;;;;58.37;34.87;;;;;;;;;;5062197;28;20184;-60
2021/04/01 10:20:21;;;;;;;59.80;34.00;;;;;;;;;;5072679;28;20696;-60
2021/04/01 10:22:47;;;;;;;58.23;35.07;;;;;;;;;;5070168;28;20183;-60
2021/04/01 10:25:22;;;;;;;55.00;33.37;;;;;;;;;;5065300;28;20188;-61
2021/04/01 10:27:59;;;;;;;54.63;30.43;;;;;;;;;;5052760;28;20269;-60
2021/04/01 10:30:29;;;;;;;56.30;30.53;;;;;;;;;;5066114;28;20188;-60
2021/04/01 10:33:04;;;;;;;60.67;34.87;;;;;;;;;;5052239;28;20196;-60
2021/04/01 10:35:33;;;;;;;57.50;31.63;;;;;;;;;;5070268;28;20199;-60
2021/04/01 10:38:02;;;;;;;54.70;31.80;;;;;;;;;;5049876;28;20199;-60
2021/04/01 10:40:30;;;;;;;52.77;32.13;;;;;;;;;;5052705;28;20219;-60
2021/04/01 10:43:07;;;;;;;54.33;32.33;;;;;;;;;;5052320;28;20181;-59
2021/04/01 10:45:34;;;;;;;55.50;31.97;;;;;;;;;;5062063;28;20267;-62
2021/04/01 10:48:09;;;;;;;57.03;31.93;;;;;;;;;;5051948;28;20708;-60
2021/04/01 10:50:35;;;;;;;57.50;32.50;;;;;;;;;;5050191;28;20196;-60
2021/04/01 10:53:01;;;;;;;56.03;31.57;;;;;;;;;;5053625;28;20202;-60
2021/04/01 10:55:32;;;;;;;55.43;32.27;;;;;;;;;;5058171;28;20184;-60
2021/04/01 10:58:08;;;;;;;53.27;29.73;;;;;;;;;;5062464;28;20176;-60
2021/04/01 11:00:35;;;;;;;61.10;32.23;;;;;;;;;;5065665;28;20188;-60
2021/04/01 11:03:02;;;;;;;52.13;29.83;;;;;;;;;;5044685;28;20271;-60
2021/04/01 11:05:29;;;;;;;54.03;28.97;;;;;;;;;;5062577;28;20521;-60
2021/04/01 11:08:09;;;;;;;56.73;31.37;;;;;;;;;;5065589;28;20635;-60
2021/04/01 11:10:35;;;;;;;48.53;28.80;;;;;;;;;;5058837;28;20210;-61
2021/04/01 11:13:02;;;;;;;45.67;26.67;;;;;;;;;;5071158;28;20597;-60
2021/04/01 11:15:32;;;;;;;50.17;28.30;;;;;;;;;;5062084;28;20180;-60
2021/04/01 11:18:02;;;;;;;51.17;29.93;;;;;;;;;;5048154;28;20172;-60
2021/04/01 11:20:30;;;;;;;51.77;29.47;;;;;;;;;;5069615;28;20627;-61
2021/04/01 11:23:04;;;;;;;60.63;34.20;;;;;;;;;;5064051;28;20173;-60
2021/04/01 11:25:30;;;;;;;55.33;31.10;;;;;;;;;;5065279;28;20309;-60
2021/04/01 11:27:56;;;;;;;54.70;31.67;;;;;;;;;;5062845;28;20182;-60
2021/04/01 11:30:24;;;;;;;52.53;30.47;;;;;;;;;;5060769;28;20185;-60
2021/04/01 11:32:52;;;;;;;50.73;28.77;;;;;;;;;;5070464;28;20283;-60
2021/04/01 11:35:19;;;;;;;52.83;34.63;;;;;;;;;;5064153;28;20199;-62
2021/04/01 11:37:48;;;;;;;52.20;31.87;;;;;;;;;;5058432;28;20196;-60
2021/04/01 11:40:15;;;;;;;57.10;35.10;;;;;;;;;;5056884;28;20177;-60
2021/04/01 11:42:51;;;;;;;59.60;35.27;;;;;;;;;;5061768;28;20169;-60
2021/04/01 11:45:17;;;;;;;59.43;34.73;;;;;;;;;;5066150;28;20489;-60
2021/04/01 11:47:44;;;;;;;61.50;38.80;;;;;;;;;;5048942;28;20530;-61
2021/04/01 11:50:12;;;;;;;54.23;35.67;;;;;;;;;;5059688;28;20201;-61
2021/04/01 11:52:40;;;;;;;65.97;40.70;;;;;;;;;;5032778;28;20579;-61
2021/04/01 11:55:13;;;;;;;59.13;38.53;;;;;;;;;;5059069;28;20177;-60
2021/04/01 11:57:44;;;;;;;58.67;39.13;;;;;;;;;;5051729;28;20181;-62
2021/04/01 12:00:23;;;;;;;62.43;38.73;;;;;;;;;;5069324;28;20650;-60
2021/04/01 12:02:57;;;;;;;64.23;41.87;;;;;;;;;;5057923;28;20188;-60
2021/04/01 12:05:23;;;;;;;73.57;44.20;;;;;;;;;;5038608;28;20283;-60
2021/04/01 12:07:50;;;;;;;63.03;42.13;;;;;;;;;;5060936;28;20267;-60
2021/04/01 12:10:16;;;;;;;64.50;41.93;;;;;;;;;;5049034;28;20522;-60
2021/04/01 12:12:42;;;;;;;68.60;46.43;;;;;;;;;;5039034;28;20745;-60
2021/04/01 12:15:09;;;;;;;64.27;44.27;;;;;;;;;;5048306;28;20223;-63
2021/04/01 12:17:36;;;;;;;64.37;42.70;;;;;;;;;;5070271;28;20234;-61
2021/04/01 12:20:04;;;;;;;69.43;45.93;;;;;;;;;;5069018;28;20172;-60
2021/04/01 12:22:30;;;;;;;76.67;47.33;;;;;;;;;;5051445;28;20193;-61
2021/04/01 12:24:57;;;;;;;66.77;46.17;;;;;;;;;;5059339;28;20185;-61
2021/04/01 12:27:27;;;;;;;67.87;45.23;;;;;;;;;;5049852;28;20173;-64
2021/04/01 12:29:53;;;;;;;62.63;45.23;;;;;;;;;;5050541;28;20192;-64
2021/04/01 12:32:29;;;;;;;64.90;43.60;;;;;;;;;;5049850;28;20319;-60
2021/04/01 12:35:06;;;;;;;63.87;44.00;;;;;;;;;;5063621;28;20168;-60
2021/04/01 12:37:32;;;;;;;63.90;45.43;;;;;;;;;;5067386;28;20191;-61
2021/04/01 12:40:08;;;;;;;68.20;46.37;;;;;;;;;;5048041;28;20185;-61
2021/04/01 12:42:34;;;;;;;62.10;42.87;;;;;;;;;;5057902;28;20545;-61
2021/04/01 12:45:00;;;;;;;59.60;43.37;;;;;;;;;;5037396;28;20192;-61
2021/04/01 12:47:26;;;;;;;63.40;43.60;;;;;;;;;;5066774;28;20188;-61
2021/04/01 12:50:00;;;;;;;59.07;42.10;;;;;;;;;;5068614;28;20193;-63
2021/04/01 12:52:26;;;;;;;63.13;42.37;;;;;;;;;;5057661;28;20265;-61
2021/04/01 12:54:52;;;;;;;58.07;40.40;;;;;;;;;;5068827;28;20187;-61
2021/04/01 12:57:24;;;;;;;57.00;39.43;;;;;;;;;;5069352;28;20179;-60
2021/04/01 12:59:56;;;;;;;54.63;39.53;;;;;;;;;;5069357;28;20187;-61
2021/04/01 13:02:24;;;;;;;61.20;43.53;;;;;;;;;;5049614;28;20870;-60
2021/04/01 13:04:59;;;;;;;55.40;38.27;;;;;;;;;;5044780;28;20188;-62
2021/04/01 13:07:33;;;;;;;45.60;35.17;;;;;;;;;;5047000;28;20172;-61
2021/04/01 13:12:44;;;;;;;44.10;32.97;;;;;;;;;;5066103;28;20202;-61
2021/04/01 13:15:10;;;;;;;42.83;30.47;;;;;;;;;;5060369;28;20181;-61
2021/04/01 13:17:36;;;;;;;39.23;28.87;;;;;;;;;;5052493;28;20173;-61
2021/04/01 13:20:02;;;;;;;44.00;30.47;;;;;;;;;;5069013;28;20179;-61
2021/04/01 13:25:33;;;;;;;39.13;26.43;;;;;;;;;;4998334;28;20221;-61
2021/04/01 13:28:08;;;;;;;33.93;23.43;;;;;;;;;;5048286;28;20238;-60
2021/04/01 13:30:35;;;;;;;32.37;22.07;;;;;;;;;;5060270;28;20638;-61
2021/04/01 13:38:22;;;;;;;23.30;16.60;;;;;;;;;;5054727;28;20173;-61
2021/04/01 13:40:50;;;;;;;22.77;15.40;;;;;;;;;;5036284;28;20224;-61
2021/04/01 13:43:20;;;;;;;19.43;13.77;;;;;;;;;;5036210;28;20234;-61
2021/04/01 13:45:46;;;;;;;21.73;13.07;;;;;;;;;;5064162;28;20176;-61
2021/04/01 13:48:16;;;;;;;15.20;11.77;;;;;;;;;;5052927;28;20169;-61
2021/04/01 13:50:48;;;;;;;13.93;10.77;;;;;;;;;;5066711;28;20654;-61
2021/04/01 13:55:53;;;;;;;17.17;9.17;;;;;;;;;;5072214;28;20569;-61
2021/04/01 14:09:28;;;;;;;10.47;7.53;;;;;;;;;;5063891;28;20654;-61
2021/04/01 14:11:55;;;;;;;12.20;7.63;;;;;;;;;;5071929;28;20169;-61
2021/04/01 14:14:21;;;;;;;13.03;6.80;;;;;;;;;;5053990;28;20208;-60
2021/04/01 14:16:47;;;;;;;10.00;5.80;;;;;;;;;;5036459;28;20185;-62
2021/04/01 14:19:15;;;;;;;10.20;6.17;;;;;;;;;;5045072;28;20211;-61
2021/04/01 14:21:41;;;;;;;28.10;19.10;;;;;;;;;;5037894;28;20619;-61
2021/04/01 14:24:10;;;;;;;10.43;7.47;;;;;;;;;;5065883;28;20181;-61
2021/04/01 14:29:40;;;;;;;7.53;5.40;;;;;;;;;;5020171;28;20315;-61
2021/04/01 14:32:07;;;;;;;10.23;5.20;;;;;;;;;;5051784;28;20272;-60
2021/04/01 14:34:34;;;;;;;10.60;5.40;;;;;;;;;;5061820;28;20604;-61
2021/04/01 14:37:02;;;;;;;9.13;4.20;;;;;;;;;;5060306;28;20260;-61
2021/04/01 14:39:31;;;;;;;8.53;4.13;;;;;;;;;;5056537;28;20184;-61
2021/04/01 14:42:02;;;;;;;8.07;4.63;;;;;;;;;;5068404;28;20227;-61
2021/04/01 14:44:29;;;;;;;8.83;3.40;;;;;;;;;;5045653;28;20188;-61
2021/04/01 14:46:55;;;;;;;10.33;3.83;;;;;;;;;;5035884;28;20692;-61
2021/04/01 14:49:21;;;;;;;8.53;4.07;;;;;;;;;;5044432;28;20201;-60
2021/04/01 14:51:48;;;;;;;9.70;3.93;;;;;;;;;;5049497;28;20743;-61
2021/04/01 14:54:23;;;;;;;9.93;3.50;;;;;;;;;;5053412;28;20192;-61
2021/04/01 14:56:55;;;;;;;8.43;3.60;;;;;;;;;;5071849;28;20588;-62
2021/04/01 14:59:27;;;;;;;6.87;3.77;;;;;;;;;;5070253;28;20169;-61
2021/04/01 15:01:54;;;;;;;6.83;4.00;;;;;;;;;;5072471;28;20231;-61
2021/04/01 15:04:20;;;;;;;7.93;4.23;;;;;;;;;;5067267;28;20196;-61
2021/04/01 15:06:50;;;;;;;9.97;4.47;;;;;;;;;;5068340;28;20176;-61
2021/04/01 15:09:20;;;;;;;5.93;4.03;;;;;;;;;;5049039;28;20249;-61
2021/04/01 15:11:46;;;;;;;7.47;3.93;;;;;;;;;;5062600;28;20189;-61
2021/04/01 15:14:13;;;;;;;7.20;4.00;;;;;;;;;;5041138;28;20208;-62
2021/04/01 15:16:39;;;;;;;5.80;3.80;;;;;;;;;;5054596;28;20632;-61
2021/04/01 15:19:06;;;;;;;6.73;4.00;;;;;;;;;;5062112;28;20226;-61
2021/04/01 15:21:32;;;;;;;9.90;3.37;;;;;;;;;;5054656;28;20234;-60
2021/04/01 15:23:58;;;;;;;5.77;3.70;;;;;;;;;;5056899;28;20184;-64
2021/04/01 15:26:25;;;;;;;8.53;4.10;;;;;;;;;;5057806;28;20193;-63
2021/04/01 15:28:51;;;;;;;7.10;4.57;;;;;;;;;;5058973;28;20243;-61
2021/04/01 15:31:17;;;;;;;9.57;4.47;;;;;;;;;;5043912;28;20440;-61
2021/04/01 15:33:44;;;;;;;4.87;4.23;;;;;;;;;;5059094;28;20196;-61
2021/04/01 15:36:10;;;;;;;6.47;4.60;;;;;;;;;;5065860;28;20172;-61
2021/04/01 15:38:39;;;;;;;7.57;4.23;;;;;;;;;;5061617;28;20180;-61
2021/04/01 15:41:05;;;;;;;7.33;4.53;;;;;;;;;;5037160;28;20221;-61
2021/04/01 15:43:31;;;;;;;6.13;3.87;;;;;;;;;;5058539;28;20184;-61
2021/04/01 15:45:58;;;;;;;4.30;3.40;;;;;;;;;;5057524;28;20184;-61
2021/04/01 15:48:24;;;;;;;4.53;3.60;;;;;;;;;;5052092;28;20668;-61
2021/04/01 15:50:50;;;;;;;7.50;3.70;;;;;;;;;;5069534;28;20208;-61
2021/04/01 15:53:17;;;;;;;3.93;3.13;;;;;;;;;;5063816;28;20231;-60
2021/04/01 15:55:46;;;;;;;4.60;2.80;;;;;;;;;;5060773;28;20640;-63
2021/04/01 15:58:12;;;;;;;4.07;3.43;;;;;;;;;;5056720;28;20234;-60
2021/04/01 16:00:39;;;;;;;5.50;3.80;;;;;;;;;;5054729;28;20664;-60
2021/04/01 16:03:06;;;;;;;4.63;2.90;;;;;;;;;;5065719;28;20183;-61
2021/04/01 16:05:32;;;;;;;5.20;3.00;;;;;;;;;;5060216;28;20176;-62
2021/04/01 16:07:58;;;;;;;3.73;2.50;;;;;;;;;;5040860;28;20528;-63
2021/04/01 16:10:25;;;;;;;4.93;2.40;;;;;;;;;;5066282;28;20567;-61
2021/04/01 16:12:53;;;;;;;9.83;2.43;;;;;;;;;;5047706;28;20197;-60
2021/04/01 16:15:19;;;;;;;8.30;2.60;;;;;;;;;;5058571;28;20509;-60
2021/04/01 16:17:47;;;;;;;4.33;2.53;;;;;;;;;;5052724;28;20173;-60
2021/04/01 16:20:13;;;;;;;6.38;2.45;;;;;;;;;;5066118;28;20805;-60
2021/04/01 16:22:39;;;;;;;7.07;2.40;;;;;;;;;;5045601;28;20191;-63
2021/04/01 16:25:05;;;;;;;3.40;1.93;;;;;;;;;;5064497;28;20180;-59
2021/04/01 16:27:31;;;;;;;3.43;1.80;;;;;;;;;;5074965;28;20204;-60